sensor_id;sensor_type;location;lat;lon;timestamp;P1;durP1;ratioP1;P2;durP2;ratioP2
69795;SDS011;57073;45.650;9.612;2022-09-27T00:01:36;11.15;;;7.65;;
69795;SDS011;57073;45.650;9.612;2022-09-27T00:03:36;11.33;;;8.10;;
69795;SDS011;57073;45.650;9.612;2022-09-27T00:05:37;11.63;;;8.10;;
69795;SDS011;57073;45.650;9.612;2022-09-27T00:07:38;14.10;;;8.35;;
69795;SDS011;57073;45.650;9.612;2022-09-27T00:09:38;12.27;;;8.27;;
69795;SDS011;57073;45.650;9.612;2022-09-27T00:11:39;11.82;;;8.27;;
69795;SDS011;57073;45.650;9.612;2022-09-27T00:13:43;10.83;;;7.60;;
69795;SDS011;57073;45.650;9.612;2022-09-27T00:15:44;10.82;;;7.70;;
69795;SDS011;57073;45.650;9.612;2022-09-27T00:17:44;12.90;;;8.30;;
69795;SDS011;57073;45.650;9.612;2022-09-27T00:19:45;10.97;;;7.60;;
69795;SDS011;57073;45.650;9.612;2022-09-27T00:21:45;17.17;;;7.60;;
69795;SDS011;57073;45.650;9.612;2022-09-27T00:23:46;10.50;;;7.18;;
69795;SDS011;57073;45.650;9.612;2022-09-27T00:25:53;9.50;;;7.23;;
69795;SDS011;57073;45.650;9.612;2022-09-27T00:27:55;11.23;;;7.03;;
69795;SDS011;57073;45.650;9.612;2022-09-27T00:29:55;10.53;;;7.07;;
69795;SDS011;57073;45.650;9.612;2022-09-27T00:31:56;12.13;;;7.63;;
69795;SDS011;57073;45.650;9.612;2022-09-27T00:33:57;11.87;;;8.17;;
69795;SDS011;57073;45.650;9.612;2022-09-27T00:36:03;11.90;;;7.97;;
69795;SDS011;57073;45.650;9.612;2022-09-27T00:38:05;12.43;;;8.10;;
69795;SDS011;57073;45.650;9.612;2022-09-27T00:40:06;11.50;;;7.32;;
69795;SDS011;57073;45.650;9.612;2022-09-27T00:42:11;10.75;;;7.25;;
69795;SDS011;57073;45.650;9.612;2022-09-27T00:48:35;11.65;;;7.40;;
69795;SDS011;57073;45.650;9.612;2022-09-27T00:50:36;10.10;;;7.30;;
69795;SDS011;57073;45.650;9.612;2022-09-27T00:55:13;9.35;;;6.88;;
69795;SDS011;57073;45.650;9.612;2022-09-27T00:57:16;10.27;;;6.83;;
69795;SDS011;57073;45.650;9.612;2022-09-27T01:01:40;9.00;;;6.70;;
69795;SDS011;57073;45.650;9.612;2022-09-27T01:06:07;8.75;;;5.97;;
69795;SDS011;57073;45.650;9.612;2022-09-27T01:08:09;7.95;;;5.43;;
69795;SDS011;57073;45.650;9.612;2022-09-27T01:10:09;7.50;;;5.50;;
69795;SDS011;57073;45.650;9.612;2022-09-27T01:19:39;6.93;;;4.78;;
69795;SDS011;57073;45.650;9.612;2022-09-27T01:21:59;6.15;;;4.85;;
69795;SDS011;57073;45.650;9.612;2022-09-27T01:33:24;5.88;;;4.57;;
69795;SDS011;57073;45.650;9.612;2022-09-27T01:43:05;5.45;;;4.13;;
69795;SDS011;57073;45.650;9.612;2022-09-27T01:47:37;5.82;;;4.05;;
69795;SDS011;57073;45.650;9.612;2022-09-27T01:51:57;6.17;;;4.53;;
69795;SDS011;57073;45.650;9.612;2022-09-27T01:54:02;5.93;;;4.57;;
69795;SDS011;57073;45.650;9.612;2022-09-27T01:56:05;6.75;;;4.97;;
69795;SDS011;57073;45.650;9.612;2022-09-27T01:58:17;6.50;;;4.80;;
69795;SDS011;57073;45.650;9.612;2022-09-27T02:00:24;8.10;;;5.30;;
69795;SDS011;57073;45.650;9.612;2022-09-27T02:02:25;7.90;;;5.27;;
69795;SDS011;57073;45.650;9.612;2022-09-27T02:04:30;7.38;;;4.60;;
69795;SDS011;57073;45.650;9.612;2022-09-27T02:06:33;6.78;;;4.80;;
69795;SDS011;57073;45.650;9.612;2022-09-27T02:08:44;6.47;;;5.00;;
69795;SDS011;57073;45.650;9.612;2022-09-27T02:10:51;8.20;;;5.00;;
69795;SDS011;57073;45.650;9.612;2022-09-27T02:13:00;6.88;;;5.10;;
69795;SDS011;57073;45.650;9.612;2022-09-27T02:15:10;6.03;;;4.55;;
69795;SDS011;57073;45.650;9.612;2022-09-27T02:17:24;7.75;;;5.13;;
69795;SDS011;57073;45.650;9.612;2022-09-27T02:21:52;6.60;;;4.80;;
69795;SDS011;57073;45.650;9.612;2022-09-27T02:24:00;6.13;;;4.55;;
69795;SDS011;57073;45.650;9.612;2022-09-27T02:26:08;6.57;;;4.68;;
69795;SDS011;57073;45.650;9.612;2022-09-27T02:28:26;6.35;;;4.68;;
69795;SDS011;57073;45.650;9.612;2022-09-27T02:30:30;6.43;;;4.53;;
69795;SDS011;57073;45.650;9.612;2022-09-27T02:32:31;8.70;;;4.80;;
69795;SDS011;57073;45.650;9.612;2022-09-27T02:34:32;6.05;;;4.55;;
69795;SDS011;57073;45.650;9.612;2022-09-27T02:36:36;5.72;;;4.40;;
69795;SDS011;57073;45.650;9.612;2022-09-27T02:38:37;7.47;;;4.87;;
69795;SDS011;57073;45.650;9.612;2022-09-27T02:40:45;8.63;;;4.97;;
69795;SDS011;57073;45.650;9.612;2022-09-27T02:42:46;8.27;;;5.30;;
69795;SDS011;57073;45.650;9.612;2022-09-27T02:44:47;6.63;;;4.93;;
69795;SDS011;57073;45.650;9.612;2022-09-27T02:51:06;7.15;;;5.28;;
69795;SDS011;57073;45.650;9.612;2022-09-27T03:02:11;8.40;;;6.15;;
69795;SDS011;57073;45.650;9.612;2022-09-27T03:04:49;7.93;;;5.50;;
69795;SDS011;57073;45.650;9.612;2022-09-27T03:06:55;6.75;;;5.38;;
69795;SDS011;57073;45.650;9.612;2022-09-27T03:08:57;7.63;;;5.47;;
69795;SDS011;57073;45.650;9.612;2022-09-27T03:10:58;8.85;;;5.57;;
69795;SDS011;57073;45.650;9.612;2022-09-27T03:12:58;6.63;;;5.10;;
69795;SDS011;57073;45.650;9.612;2022-09-27T03:14:59;8.87;;;5.83;;
69795;SDS011;57073;45.650;9.612;2022-09-27T03:17:00;7.38;;;5.60;;
69795;SDS011;57073;45.650;9.612;2022-09-27T03:19:00;8.57;;;5.50;;
69795;SDS011;57073;45.650;9.612;2022-09-27T03:21:00;6.50;;;5.03;;
69795;SDS011;57073;45.650;9.612;2022-09-27T03:23:01;6.45;;;4.88;;
69795;SDS011;57073;45.650;9.612;2022-09-27T03:25:01;5.40;;;4.13;;
69795;SDS011;57073;45.650;9.612;2022-09-27T03:27:01;5.83;;;4.43;;
69795;SDS011;57073;45.650;9.612;2022-09-27T03:29:02;6.80;;;4.38;;
69795;SDS011;57073;45.650;9.612;2022-09-27T03:31:03;6.00;;;4.07;;
69795;SDS011;57073;45.650;9.612;2022-09-27T03:33:03;6.73;;;3.83;;
69795;SDS011;57073;45.650;9.612;2022-09-27T03:35:03;5.90;;;4.10;;
69795;SDS011;57073;45.650;9.612;2022-09-27T03:37:04;7.35;;;4.45;;
69795;SDS011;57073;45.650;9.612;2022-09-27T03:39:04;7.17;;;4.60;;
69795;SDS011;57073;45.650;9.612;2022-09-27T03:41:05;6.13;;;4.17;;
69795;SDS011;57073;45.650;9.612;2022-09-27T03:43:05;5.65;;;3.95;;
69795;SDS011;57073;45.650;9.612;2022-09-27T03:45:06;5.63;;;4.47;;
69795;SDS011;57073;45.650;9.612;2022-09-27T03:47:06;5.90;;;4.30;;
69795;SDS011;57073;45.650;9.612;2022-09-27T03:49:07;5.67;;;4.03;;
69795;SDS011;57073;45.650;9.612;2022-09-27T03:51:07;7.63;;;4.20;;
69795;SDS011;57073;45.650;9.612;2022-09-27T03:53:11;5.85;;;4.00;;
69795;SDS011;57073;45.650;9.612;2022-09-27T03:55:11;6.27;;;4.40;;
69795;SDS011;57073;45.650;9.612;2022-09-27T03:57:13;7.18;;;4.35;;
69795;SDS011;57073;45.650;9.612;2022-09-27T03:59:13;6.93;;;4.43;;
69795;SDS011;57073;45.650;9.612;2022-09-27T04:01:14;7.82;;;4.43;;
69795;SDS011;57073;45.650;9.612;2022-09-27T04:03:14;8.70;;;4.43;;
69795;SDS011;57073;45.650;9.612;2022-09-27T04:05:16;7.72;;;4.20;;
69795;SDS011;57073;45.650;9.612;2022-09-27T04:07:16;6.90;;;4.47;;
69795;SDS011;57073;45.650;9.612;2022-09-27T04:09:17;7.30;;;4.60;;
69795;SDS011;57073;45.650;9.612;2022-09-27T04:11:17;6.63;;;4.35;;
69795;SDS011;57073;45.650;9.612;2022-09-27T04:13:18;8.23;;;4.67;;
69795;SDS011;57073;45.650;9.612;2022-09-27T04:15:18;6.87;;;4.33;;
69795;SDS011;57073;45.650;9.612;2022-09-27T04:17:18;7.97;;;4.60;;
69795;SDS011;57073;45.650;9.612;2022-09-27T04:19:19;6.47;;;4.40;;
69795;SDS011;57073;45.650;9.612;2022-09-27T04:21:19;6.75;;;4.05;;
69795;SDS011;57073;45.650;9.612;2022-09-27T04:23:20;7.87;;;4.87;;
69795;SDS011;57073;45.650;9.612;2022-09-27T04:25:20;5.60;;;4.27;;
69795;SDS011;57073;45.650;9.612;2022-09-27T04:27:20;13.53;;;4.60;;
69795;SDS011;57073;45.650;9.612;2022-09-27T04:29:21;7.32;;;4.40;;
69795;SDS011;57073;45.650;9.612;2022-09-27T04:31:22;6.63;;;4.60;;
69795;SDS011;57073;45.650;9.612;2022-09-27T04:33:22;7.27;;;4.60;;
69795;SDS011;57073;45.650;9.612;2022-09-27T04:35:23;7.30;;;4.30;;
69795;SDS011;57073;45.650;9.612;2022-09-27T04:37:41;7.45;;;4.28;;
69795;SDS011;57073;45.650;9.612;2022-09-27T04:39:44;7.10;;;4.50;;
69795;SDS011;57073;45.650;9.612;2022-09-27T04:41:44;7.70;;;4.63;;
69795;SDS011;57073;45.650;9.612;2022-09-27T04:43:44;7.40;;;4.43;;
69795;SDS011;57073;45.650;9.612;2022-09-27T04:45:45;7.40;;;4.60;;
69795;SDS011;57073;45.650;9.612;2022-09-27T04:47:48;8.20;;;4.53;;
69795;SDS011;57073;45.650;9.612;2022-09-27T04:49:49;6.53;;;4.07;;
69795;SDS011;57073;45.650;9.612;2022-09-27T04:51:49;7.32;;;4.53;;
69795;SDS011;57073;45.650;9.612;2022-09-27T04:53:50;6.77;;;4.57;;
69795;SDS011;57073;45.650;9.612;2022-09-27T04:55:51;7.50;;;4.57;;
69795;SDS011;57073;45.650;9.612;2022-09-27T04:57:53;7.32;;;4.68;;
69795;SDS011;57073;45.650;9.612;2022-09-27T04:59:53;11.20;;;4.90;;
69795;SDS011;57073;45.650;9.612;2022-09-27T05:01:53;7.27;;;4.37;;
69795;SDS011;57073;45.650;9.612;2022-09-27T05:03:54;7.97;;;4.80;;
69795;SDS011;57073;45.650;9.612;2022-09-27T05:05:54;7.33;;;4.90;;
69795;SDS011;57073;45.650;9.612;2022-09-27T05:07:55;8.37;;;4.90;;
69795;SDS011;57073;45.650;9.612;2022-09-27T05:09:55;8.23;;;5.30;;
69795;SDS011;57073;45.650;9.612;2022-09-27T05:11:55;8.02;;;4.97;;
69795;SDS011;57073;45.650;9.612;2022-09-27T05:13:56;9.13;;;5.03;;
69795;SDS011;57073;45.650;9.612;2022-09-27T05:16:00;9.40;;;5.10;;
69795;SDS011;57073;45.650;9.612;2022-09-27T05:18:02;7.88;;;4.95;;
69795;SDS011;57073;45.650;9.612;2022-09-27T05:20:03;7.80;;;4.97;;
69795;SDS011;57073;45.650;9.612;2022-09-27T05:22:04;9.38;;;5.40;;
69795;SDS011;57073;45.650;9.612;2022-09-27T05:24:05;7.40;;;4.90;;
69795;SDS011;57073;45.650;9.612;2022-09-27T05:26:06;7.97;;;5.13;;
69795;SDS011;57073;45.650;9.612;2022-09-27T05:28:06;7.03;;;5.50;;
69795;SDS011;57073;45.650;9.612;2022-09-27T05:30:08;10.27;;;5.57;;
69795;SDS011;57073;45.650;9.612;2022-09-27T05:32:10;7.68;;;5.30;;
69795;SDS011;57073;45.650;9.612;2022-09-27T05:34:10;7.47;;;4.80;;
69795;SDS011;57073;45.650;9.612;2022-09-27T05:36:11;6.57;;;4.77;;
69795;SDS011;57073;45.650;9.612;2022-09-27T05:38:12;9.32;;;4.93;;
69795;SDS011;57073;45.650;9.612;2022-09-27T05:40:12;7.27;;;4.87;;
69795;SDS011;57073;45.650;9.612;2022-09-27T05:42:13;9.63;;;5.17;;
69795;SDS011;57073;45.650;9.612;2022-09-27T05:44:14;9.90;;;5.10;;
69795;SDS011;57073;45.650;9.612;2022-09-27T05:46:16;9.23;;;5.75;;
69795;SDS011;57073;45.650;9.612;2022-09-27T05:48:16;7.93;;;5.00;;
69795;SDS011;57073;45.650;9.612;2022-09-27T05:50:16;8.90;;;5.80;;
69795;SDS011;57073;45.650;9.612;2022-09-27T05:52:17;7.70;;;5.20;;
69795;SDS011;57073;45.650;9.612;2022-09-27T05:54:17;7.50;;;5.17;;
69795;SDS011;57073;45.650;9.612;2022-09-27T05:56:17;9.63;;;4.80;;
69795;SDS011;57073;45.650;9.612;2022-09-27T05:58:18;9.73;;;5.10;;
69795;SDS011;57073;45.650;9.612;2022-09-27T06:00:18;7.00;;;5.33;;
69795;SDS011;57073;45.650;9.612;2022-09-27T06:02:19;9.30;;;5.38;;
69795;SDS011;57073;45.650;9.612;2022-09-27T06:04:19;8.73;;;5.57;;
69795;SDS011;57073;45.650;9.612;2022-09-27T06:06:20;7.70;;;5.35;;
69795;SDS011;57073;45.650;9.612;2022-09-27T06:08:22;8.33;;;5.50;;
69795;SDS011;57073;45.650;9.612;2022-09-27T06:10:23;9.95;;;5.35;;
69795;SDS011;57073;45.650;9.612;2022-09-27T06:12:23;13.53;;;5.60;;
69795;SDS011;57073;45.650;9.612;2022-09-27T06:14:24;7.80;;;4.90;;
69795;SDS011;57073;45.650;9.612;2022-09-27T06:16:24;8.80;;;4.47;;
69795;SDS011;57073;45.650;9.612;2022-09-27T06:18:24;9.17;;;4.97;;
69795;SDS011;57073;45.650;9.612;2022-09-27T06:20:25;8.60;;;4.90;;
69795;SDS011;57073;45.650;9.612;2022-09-27T06:22:25;7.97;;;4.67;;
69795;SDS011;57073;45.650;9.612;2022-09-27T06:24:26;6.07;;;4.33;;
69795;SDS011;57073;45.650;9.612;2022-09-27T06:26:26;7.47;;;4.87;;
69795;SDS011;57073;45.650;9.612;2022-09-27T06:28:26;7.57;;;4.90;;
69795;SDS011;57073;45.650;9.612;2022-09-27T06:30:27;7.40;;;4.90;;
69795;SDS011;57073;45.650;9.612;2022-09-27T06:32:28;8.00;;;4.60;;
69795;SDS011;57073;45.650;9.612;2022-09-27T06:34:28;8.20;;;4.43;;
69795;SDS011;57073;45.650;9.612;2022-09-27T06:36:29;8.38;;;4.82;;
69795;SDS011;57073;45.650;9.612;2022-09-27T06:38:29;7.73;;;4.87;;
69795;SDS011;57073;45.650;9.612;2022-09-27T06:40:30;6.90;;;4.50;;
69795;SDS011;57073;45.650;9.612;2022-09-27T06:42:30;7.68;;;4.35;;
69795;SDS011;57073;45.650;9.612;2022-09-27T06:44:30;6.17;;;4.30;;
69795;SDS011;57073;45.650;9.612;2022-09-27T06:46:31;6.10;;;4.10;;
69795;SDS011;57073;45.650;9.612;2022-09-27T06:48:32;8.20;;;4.53;;
69795;SDS011;57073;45.650;9.612;2022-09-27T06:50:33;5.47;;;4.32;;
69795;SDS011;57073;45.650;9.612;2022-09-27T06:52:36;8.15;;;4.80;;
69795;SDS011;57073;45.650;9.612;2022-09-27T06:54:36;6.72;;;4.45;;
69795;SDS011;57073;45.650;9.612;2022-09-27T06:56:37;8.27;;;4.83;;
69795;SDS011;57073;45.650;9.612;2022-09-27T06:58:37;9.10;;;4.83;;
69795;SDS011;57073;45.650;9.612;2022-09-27T07:00:56;7.22;;;4.82;;
69795;SDS011;57073;45.650;9.612;2022-09-27T07:02:57;8.70;;;5.03;;
69795;SDS011;57073;45.650;9.612;2022-09-27T07:05:01;7.73;;;5.30;;
69795;SDS011;57073;45.650;9.612;2022-09-27T07:07:03;8.00;;;5.30;;
69795;SDS011;57073;45.650;9.612;2022-09-27T07:09:03;8.60;;;5.73;;
69795;SDS011;57073;45.650;9.612;2022-09-27T07:11:06;10.07;;;5.13;;
69795;SDS011;57073;45.650;9.612;2022-09-27T07:13:07;7.97;;;6.10;;
69795;SDS011;57073;45.650;9.612;2022-09-27T07:15:09;10.82;;;6.40;;
69795;SDS011;57073;45.650;9.612;2022-09-27T07:17:10;8.50;;;6.00;;
69795;SDS011;57073;45.650;9.612;2022-09-27T07:19:12;8.90;;;6.18;;
69795;SDS011;57073;45.650;9.612;2022-09-27T07:21:14;9.07;;;5.88;;
69795;SDS011;57073;45.650;9.612;2022-09-27T07:23:15;8.70;;;6.30;;
69795;SDS011;57073;45.650;9.612;2022-09-27T07:25:16;9.60;;;6.90;;
69795;SDS011;57073;45.650;9.612;2022-09-27T07:27:17;9.52;;;6.43;;
69795;SDS011;57073;45.650;9.612;2022-09-27T07:29:17;10.70;;;6.63;;
69795;SDS011;57073;45.650;9.612;2022-09-27T07:31:18;10.80;;;6.32;;
69795;SDS011;57073;45.650;9.612;2022-09-27T07:33:18;8.53;;;6.27;;
69795;SDS011;57073;45.650;9.612;2022-09-27T07:35:19;12.60;;;7.20;;
69795;SDS011;57073;45.650;9.612;2022-09-27T07:37:19;12.60;;;6.70;;
69795;SDS011;57073;45.650;9.612;2022-09-27T07:39:20;9.67;;;6.50;;
69795;SDS011;57073;45.650;9.612;2022-09-27T07:41:21;9.30;;;7.07;;
69795;SDS011;57073;45.650;9.612;2022-09-27T07:43:21;10.17;;;6.90;;
69795;SDS011;57073;45.650;9.612;2022-09-27T07:45:23;9.48;;;6.68;;
69795;SDS011;57073;45.650;9.612;2022-09-27T07:47:24;8.80;;;6.65;;
69795;SDS011;57073;45.650;9.612;2022-09-27T07:49:25;9.00;;;6.23;;
69795;SDS011;57073;45.650;9.612;2022-09-27T07:51:25;10.02;;;6.60;;
69795;SDS011;57073;45.650;9.612;2022-09-27T07:53:26;9.10;;;6.27;;
69795;SDS011;57073;45.650;9.612;2022-09-27T07:55:26;11.20;;;6.27;;
69795;SDS011;57073;45.650;9.612;2022-09-27T07:57:27;10.50;;;7.20;;
69795;SDS011;57073;45.650;9.612;2022-09-27T07:59:27;9.20;;;6.80;;
69795;SDS011;57073;45.650;9.612;2022-09-27T08:01:28;10.67;;;6.70;;
69795;SDS011;57073;45.650;9.612;2022-09-27T08:03:28;9.85;;;6.82;;
69795;SDS011;57073;45.650;9.612;2022-09-27T08:05:28;12.37;;;7.13;;
69795;SDS011;57073;45.650;9.612;2022-09-27T08:07:29;9.97;;;7.17;;
69795;SDS011;57073;45.650;9.612;2022-09-27T08:09:31;11.48;;;7.75;;
69795;SDS011;57073;45.650;9.612;2022-09-27T08:11:32;12.20;;;7.33;;
69795;SDS011;57073;45.650;9.612;2022-09-27T08:13:32;9.20;;;6.30;;
69795;SDS011;57073;45.650;9.612;2022-09-27T08:15:33;11.47;;;7.03;;
69795;SDS011;57073;45.650;9.612;2022-09-27T08:17:38;11.93;;;7.45;;
69795;SDS011;57073;45.650;9.612;2022-09-27T08:19:38;9.40;;;6.30;;
69795;SDS011;57073;45.650;9.612;2022-09-27T08:21:39;9.85;;;6.03;;
69795;SDS011;57073;45.650;9.612;2022-09-27T08:23:40;8.50;;;6.13;;
69795;SDS011;57073;45.650;9.612;2022-09-27T08:25:41;7.50;;;5.75;;
69795;SDS011;57073;45.650;9.612;2022-09-27T08:27:43;8.77;;;6.32;;
69795;SDS011;57073;45.650;9.612;2022-09-27T08:29:43;8.50;;;5.87;;
69795;SDS011;57073;45.650;9.612;2022-09-27T08:31:43;10.07;;;6.57;;
69795;SDS011;57073;45.650;9.612;2022-09-27T08:33:48;15.17;;;9.20;;
69795;SDS011;57073;45.650;9.612;2022-09-27T08:35:49;17.50;;;10.27;;
69795;SDS011;57073;45.650;9.612;2022-09-27T08:37:55;19.27;;;11.20;;
69795;SDS011;57073;45.650;9.612;2022-09-27T08:39:57;19.33;;;10.80;;
69795;SDS011;57073;45.650;9.612;2022-09-27T08:49:05;14.98;;;9.20;;
69795;SDS011;57073;45.650;9.612;2022-09-27T08:51:12;17.13;;;9.87;;
69795;SDS011;57073;45.650;9.612;2022-09-27T08:55:31;20.70;;;9.00;;
69795;SDS011;57073;45.650;9.612;2022-09-27T08:57:36;16.40;;;8.77;;
69795;SDS011;57073;45.650;9.612;2022-09-27T08:59:49;12.75;;;8.65;;
69795;SDS011;57073;45.650;9.612;2022-09-27T09:01:52;13.43;;;8.45;;
69795;SDS011;57073;45.650;9.612;2022-09-27T09:03:54;13.50;;;8.77;;
69795;SDS011;57073;45.650;9.612;2022-09-27T09:08:22;15.70;;;9.70;;
69795;SDS011;57073;45.650;9.612;2022-09-27T09:13:16;13.27;;;8.82;;
69795;SDS011;57073;45.650;9.612;2022-09-27T09:15:48;12.13;;;8.55;;
69795;SDS011;57073;45.650;9.612;2022-09-27T09:20:33;14.80;;;9.13;;
69795;SDS011;57073;45.650;9.612;2022-09-27T09:23:10;12.00;;;8.77;;
69795;SDS011;57073;45.650;9.612;2022-09-27T09:27:58;13.57;;;8.40;;
69795;SDS011;57073;45.650;9.612;2022-09-27T09:34:47;13.30;;;9.53;;
69795;SDS011;57073;45.650;9.612;2022-09-27T09:36:54;16.00;;;9.30;;
69795;SDS011;57073;45.650;9.612;2022-09-27T09:39:16;12.98;;;8.60;;
69795;SDS011;57073;45.650;9.612;2022-09-27T09:43:32;12.73;;;9.20;;
69795;SDS011;57073;45.650;9.612;2022-09-27T09:45:34;12.60;;;9.03;;
69795;SDS011;57073;45.650;9.612;2022-09-27T09:47:46;13.10;;;9.52;;
69795;SDS011;57073;45.650;9.612;2022-09-27T09:50:17;12.70;;;9.07;;
69795;SDS011;57073;45.650;9.612;2022-09-27T09:52:22;12.63;;;8.70;;
69795;SDS011;57073;45.650;9.612;2022-09-27T09:54:29;13.85;;;9.55;;
69795;SDS011;57073;45.650;9.612;2022-09-27T09:59:14;15.38;;;9.80;;
69795;SDS011;57073;45.650;9.612;2022-09-27T10:01:26;12.98;;;9.15;;
69795;SDS011;57073;45.650;9.612;2022-09-27T10:03:32;12.55;;;8.70;;
69795;SDS011;57073;45.650;9.612;2022-09-27T10:05:32;12.10;;;7.80;;
69795;SDS011;57073;45.650;9.612;2022-09-27T10:07:35;10.18;;;7.50;;
69795;SDS011;57073;45.650;9.612;2022-09-27T10:09:38;8.52;;;6.32;;
69795;SDS011;57073;45.650;9.612;2022-09-27T10:11:40;8.20;;;6.33;;
69795;SDS011;57073;45.650;9.612;2022-09-27T10:13:45;12.77;;;7.97;;
69795;SDS011;57073;45.650;9.612;2022-09-27T10:15:53;10.07;;;7.75;;
69795;SDS011;57073;45.650;9.612;2022-09-27T10:18:02;12.27;;;7.63;;
69795;SDS011;57073;45.650;9.612;2022-09-27T10:20:03;12.35;;;7.82;;
69795;SDS011;57073;45.650;9.612;2022-09-27T10:22:21;11.75;;;8.10;;
69795;SDS011;57073;45.650;9.612;2022-09-27T10:24:25;8.85;;;7.15;;
69795;SDS011;57073;45.650;9.612;2022-09-27T10:26:25;9.83;;;7.57;;
69795;SDS011;57073;45.650;9.612;2022-09-27T10:28:41;11.20;;;7.67;;
69795;SDS011;57073;45.650;9.612;2022-09-27T10:30:44;12.93;;;7.77;;
69795;SDS011;57073;45.650;9.612;2022-09-27T10:33:03;11.18;;;8.15;;
69795;SDS011;57073;45.650;9.612;2022-09-27T10:37:29;8.88;;;7.25;;
69795;SDS011;57073;45.650;9.612;2022-09-27T10:39:29;10.27;;;7.17;;
69795;SDS011;57073;45.650;9.612;2022-09-27T10:43:35;11.27;;;8.33;;
69795;SDS011;57073;45.650;9.612;2022-09-27T10:45:36;10.38;;;7.97;;
69795;SDS011;57073;45.650;9.612;2022-09-27T10:47:37;12.45;;;8.48;;
69795;SDS011;57073;45.650;9.612;2022-09-27T10:49:41;11.17;;;7.97;;
69795;SDS011;57073;45.650;9.612;2022-09-27T10:51:41;9.98;;;7.72;;
69795;SDS011;57073;45.650;9.612;2022-09-27T10:53:43;10.40;;;7.43;;
69795;SDS011;57073;45.650;9.612;2022-09-27T10:55:46;10.98;;;7.50;;
69795;SDS011;57073;45.650;9.612;2022-09-27T10:57:49;10.40;;;7.50;;
69795;SDS011;57073;45.650;9.612;2022-09-27T10:59:54;11.97;;;8.20;;
69795;SDS011;57073;45.650;9.612;2022-09-27T11:01:57;10.75;;;7.30;;
69795;SDS011;57073;45.650;9.612;2022-09-27T11:03:58;9.13;;;6.50;;
69795;SDS011;57073;45.650;9.612;2022-09-27T11:05:59;6.97;;;5.80;;
69795;SDS011;57073;45.650;9.612;2022-09-27T11:08:16;8.93;;;6.00;;
69795;SDS011;57073;45.650;9.612;2022-09-27T11:10:29;8.55;;;5.72;;
69795;SDS011;57073;45.650;9.612;2022-09-27T11:12:34;8.20;;;5.63;;
69795;SDS011;57073;45.650;9.612;2022-09-27T11:14:35;6.93;;;5.65;;
69795;SDS011;57073;45.650;9.612;2022-09-27T11:21:14;9.02;;;5.68;;
69795;SDS011;57073;45.650;9.612;2022-09-27T11:24:08;8.57;;;5.60;;
69795;SDS011;57073;45.650;9.612;2022-09-27T11:30:59;6.25;;;5.53;;
69795;SDS011;57073;45.650;9.612;2022-09-27T11:42:40;8.48;;;6.30;;
69795;SDS011;57073;45.650;9.612;2022-09-27T11:58:30;7.53;;;5.10;;
69795;SDS011;57073;45.650;9.612;2022-09-27T12:09:52;10.13;;;6.32;;
69795;SDS011;57073;45.650;9.612;2022-09-27T12:12:03;8.70;;;6.53;;
69795;SDS011;57073;45.650;9.612;2022-09-27T12:16:12;11.33;;;7.60;;
69795;SDS011;57073;45.650;9.612;2022-09-27T12:18:21;9.55;;;6.80;;
69795;SDS011;57073;45.650;9.612;2022-09-27T12:20:27;12.02;;;7.22;;
69795;SDS011;57073;45.650;9.612;2022-09-27T12:22:35;10.82;;;7.15;;
69795;SDS011;57073;45.650;9.612;2022-09-27T12:24:43;10.75;;;7.43;;
69795;SDS011;57073;45.650;9.612;2022-09-27T12:26:45;10.10;;;7.20;;
69795;SDS011;57073;45.650;9.612;2022-09-27T12:30:52;8.38;;;7.07;;
69795;SDS011;57073;45.650;9.612;2022-09-27T12:33:08;10.02;;;7.25;;
69795;SDS011;57073;45.650;9.612;2022-09-27T12:35:27;8.95;;;6.72;;
69795;SDS011;57073;45.650;9.612;2022-09-27T12:40:04;9.50;;;6.82;;
69795;SDS011;57073;45.650;9.612;2022-09-27T12:42:24;8.95;;;6.90;;
69795;SDS011;57073;45.650;9.612;2022-09-27T12:44:37;10.00;;;7.18;;
69795;SDS011;57073;45.650;9.612;2022-09-27T12:51:15;8.82;;;6.05;;
69795;SDS011;57073;45.650;9.612;2022-09-27T12:53:22;9.68;;;6.78;;
69795;SDS011;57073;45.650;9.612;2022-09-27T13:00:03;7.47;;;5.87;;
69795;SDS011;57073;45.650;9.612;2022-09-27T13:04:47;11.45;;;7.72;;
69795;SDS011;57073;45.650;9.612;2022-09-27T13:10:00;9.60;;;6.78;;
69795;SDS011;57073;45.650;9.612;2022-09-27T13:12:20;9.83;;;6.30;;
69795;SDS011;57073;45.650;9.612;2022-09-27T13:14:24;8.27;;;5.75;;
69795;SDS011;57073;45.650;9.612;2022-09-27T13:16:26;8.27;;;5.35;;
69795;SDS011;57073;45.650;9.612;2022-09-27T13:18:31;8.90;;;5.40;;
69795;SDS011;57073;45.650;9.612;2022-09-27T13:22:37;9.23;;;5.70;;
69795;SDS011;57073;45.650;9.612;2022-09-27T13:24:40;10.90;;;6.60;;
69795;SDS011;57073;45.650;9.612;2022-09-27T13:26:42;8.18;;;5.57;;
69795;SDS011;57073;45.650;9.612;2022-09-27T13:30:47;7.97;;;6.10;;
69795;SDS011;57073;45.650;9.612;2022-09-27T13:35:20;8.25;;;5.05;;
69795;SDS011;57073;45.650;9.612;2022-09-27T13:39:35;4.40;;;3.80;;
69795;SDS011;57073;45.650;9.612;2022-09-27T13:42:19;9.52;;;4.22;;
69795;SDS011;57073;45.650;9.612;2022-09-27T13:46:52;6.57;;;4.57;;
69795;SDS011;57073;45.650;9.612;2022-09-27T13:51:17;4.95;;;3.33;;
69795;SDS011;57073;45.650;9.612;2022-09-27T13:53:37;3.97;;;2.90;;
69795;SDS011;57073;45.650;9.612;2022-09-27T13:55:46;4.88;;;2.90;;
69795;SDS011;57073;45.650;9.612;2022-09-27T13:58:00;5.47;;;2.50;;
69795;SDS011;57073;45.650;9.612;2022-09-27T14:00:05;4.30;;;2.53;;
69795;SDS011;57073;45.650;9.612;2022-09-27T14:02:11;2.97;;;2.08;;
69795;SDS011;57073;45.650;9.612;2022-09-27T14:04:20;8.57;;;2.47;;
69795;SDS011;57073;45.650;9.612;2022-09-27T14:06:42;3.42;;;2.75;;
69795;SDS011;57073;45.650;9.612;2022-09-27T14:08:48;6.90;;;4.73;;
69795;SDS011;57073;45.650;9.612;2022-09-27T14:10:52;9.55;;;5.55;;
69795;SDS011;57073;45.650;9.612;2022-09-27T14:12:54;5.57;;;4.00;;
69795;SDS011;57073;45.650;9.612;2022-09-27T14:14:55;3.75;;;2.80;;
69795;SDS011;57073;45.650;9.612;2022-09-27T14:16:57;3.38;;;2.35;;
69795;SDS011;57073;45.650;9.612;2022-09-27T14:18:59;3.20;;;2.30;;
69795;SDS011;57073;45.650;9.612;2022-09-27T14:21:13;3.65;;;2.50;;
69795;SDS011;57073;45.650;9.612;2022-09-27T14:23:21;3.45;;;2.65;;
69795;SDS011;57073;45.650;9.612;2022-09-27T14:25:23;4.53;;;2.38;;
69795;SDS011;57073;45.650;9.612;2022-09-27T14:27:25;3.43;;;2.43;;
69795;SDS011;57073;45.650;9.612;2022-09-27T14:29:30;3.27;;;2.00;;
69795;SDS011;57073;45.650;9.612;2022-09-27T14:31:33;2.70;;;1.98;;
69795;SDS011;57073;45.650;9.612;2022-09-27T14:33:33;2.50;;;2.00;;
69795;SDS011;57073;45.650;9.612;2022-09-27T14:35:33;3.90;;;2.42;;
69795;SDS011;57073;45.650;9.612;2022-09-27T14:37:53;5.38;;;3.00;;
69795;SDS011;57073;45.650;9.612;2022-09-27T14:39:57;5.47;;;3.93;;
69795;SDS011;57073;45.650;9.612;2022-09-27T14:42:15;5.63;;;4.10;;
69795;SDS011;57073;45.650;9.612;2022-09-27T14:44:20;6.03;;;3.58;;
69795;SDS011;57073;45.650;9.612;2022-09-27T14:46:27;4.40;;;3.33;;
69795;SDS011;57073;45.650;9.612;2022-09-27T14:48:30;4.88;;;3.25;;
69795;SDS011;57073;45.650;9.612;2022-09-27T14:50:33;5.82;;;3.55;;
69795;SDS011;57073;45.650;9.612;2022-09-27T14:52:37;5.63;;;3.55;;
69795;SDS011;57073;45.650;9.612;2022-09-27T14:54:38;4.38;;;3.30;;
69795;SDS011;57073;45.650;9.612;2022-09-27T14:56:38;4.33;;;3.10;;
69795;SDS011;57073;45.650;9.612;2022-09-27T14:58:40;7.43;;;3.53;;
69795;SDS011;57073;45.650;9.612;2022-09-27T15:00:44;4.97;;;3.63;;
69795;SDS011;57073;45.650;9.612;2022-09-27T15:02:46;8.50;;;4.68;;
69795;SDS011;57073;45.650;9.612;2022-09-27T15:04:49;8.60;;;5.30;;
69795;SDS011;57073;45.650;9.612;2022-09-27T15:06:51;10.43;;;6.28;;
69795;SDS011;57073;45.650;9.612;2022-09-27T15:08:52;10.40;;;6.00;;
69795;SDS011;57073;45.650;9.612;2022-09-27T15:10:53;7.30;;;4.78;;